Time;durP1;ratioP1;P1;durP2;ratioP2;P2;SDS_P1;SDS_P2;PMS_P1;PMS_P2;Temp;Humidity;BMP_temperature;BMP_pressure;BME280_temperature;BME280_humidity;BME280_pressure;Samples;Min_cycle;Max_cycle;Signal;HPM_P1;HPM_P2
2024/01/05 00:02:31;;;;;;;4.67;2.30;;;;;;;-0.34;100.00;99856.16;4967553;57;1137178;-81
2024/01/05 00:07:37;;;;;;;5.33;2.20;;;;;;;-0.36;100.00;99847.13;4953839;56;1136730;-82
2024/01/05 00:12:43;;;;;;;7.52;2.40;;;;;;;-0.34;100.00;99847.07;4983599;57;1136381;-81
2024/01/05 00:17:49;;;;;;;2.37;1.63;;;;;;;-0.32;100.00;99851.75;4910995;56;1136681;-82
2024/01/05 00:22:55;;;;;;;3.30;1.77;;;;;;;-0.36;100.00;99860.58;4971031;57;1136857;-81
2024/01/05 00:28:00;;;;;;;4.77;2.13;;;;;;;-0.37;100.00;99866.69;4955186;56;1136710;-82
2024/01/05 00:33:06;;;;;;;2.27;1.60;;;;;;;-0.38;100.00;99869.73;4968783;56;1136634;-81
2024/01/05 00:38:12;;;;;;;4.83;2.43;;;;;;;-0.37;100.00;99871.87;4916699;58;1136826;-81
2024/01/05 00:43:17;;;;;;;3.27;1.80;;;;;;;-0.36;100.00;99869.67;4971747;57;1136686;-82
2024/01/05 00:48:23;;;;;;;4.73;1.97;;;;;;;-0.34;100.00;99873.50;4917572;58;1137136;-81
2024/01/05 00:53:30;;;;;;;2.27;1.57;;;;;;;-0.36;100.00;99877.47;4986803;55;1136838;-81
2024/01/05 00:58:36;;;;;;;5.00;1.97;;;;;;;-0.44;100.00;99869.98;4959844;57;1136848;-81
2024/01/05 01:03:42;;;;;;;5.73;2.20;;;;;;;-0.40;100.00;99879.80;4983628;55;1136819;-81
2024/01/05 01:08:47;;;;;;;3.12;1.82;;;;;;;-0.41;100.00;99880.25;4909606;57;1136830;-82
2024/01/05 01:13:53;;;;;;;2.50;1.90;;;;;;;-0.44;100.00;99878.23;4957503;56;1136734;-82
2024/01/05 01:18:59;;;;;;;6.03;1.83;;;;;;;-0.43;100.00;99887.27;4988347;55;1136991;-82
2024/01/05 01:24:05;;;;;;;3.53;2.07;;;;;;;-0.47;100.00;99894.82;4977179;58;1136556;-81
2024/01/05 01:29:11;;;;;;;3.10;2.17;;;;;;;-0.46;100.00;99899.08;4971077;58;1136576;-81
2024/01/05 01:34:17;;;;;;;3.90;2.27;;;;;;;-0.48;100.00;99911.31;4942291;58;1136630;-82
2024/01/05 01:39:22;;;;;;;3.33;1.83;;;;;;;-0.47;100.00;99901.31;4989225;56;1136685;-81
2024/01/05 01:44:28;;;;;;;3.42;1.98;;;;;;;-0.45;100.00;99903.36;4967959;56;1136486;-82
2024/01/05 01:49:34;;;;;;;4.23;2.13;;;;;;;-0.39;100.00;99904.41;4964894;57;1136705;-81
2024/01/05 01:54:40;;;;;;;5.20;2.20;;;;;;;-0.37;100.00;99902.60;4966541;58;1141769;-81
2024/01/05 01:59:46;;;;;;;3.27;1.80;;;;;;;-0.37;100.00;99912.15;4927242;57;1137067;-82
2024/01/05 02:04:53;;;;;;;5.47;2.30;;;;;;;-0.47;100.00;99913.45;4949439;58;1136714;-82
2024/01/05 02:09:59;;;;;;;3.93;1.87;;;;;;;-0.54;100.00;99908.95;4957576;58;1136416;-81
2024/01/05 02:15:06;;;;;;;2.70;1.50;;;;;;;-0.54;100.00;99916.75;4966014;58;1136555;-81
2024/01/05 02:20:12;;;;;;;5.73;2.00;;;;;;;-0.57;100.00;99920.77;4968260;58;1136918;-81
2024/01/05 02:25:17;;;;;;;7.87;1.90;;;;;;;-0.57;100.00;99918.17;4924706;57;1136464;-81
2024/01/05 02:30:23;;;;;;;4.37;2.00;;;;;;;-0.58;100.00;99925.57;4941045;57;1137181;-82
2024/01/05 02:35:29;;;;;;;5.47;2.27;;;;;;;-0.56;100.00;99926.80;4956050;57;1136633;-81
2024/01/05 02:40:35;;;;;;;6.10;2.03;;;;;;;-0.51;100.00;99922.27;4996801;56;1146128;-81
2024/01/05 02:45:41;;;;;;;3.02;1.57;;;;;;;-0.49;100.00;99920.47;4978402;57;1136601;-81
2024/01/05 02:50:47;;;;;;;3.17;2.00;;;;;;;-0.49;100.00;99932.16;4973907;55;1136529;-81
2024/01/05 02:55:53;;;;;;;4.53;2.00;;;;;;;-0.49;100.00;99932.16;4998280;57;1136591;-81
2024/01/05 03:00:58;;;;;;;4.57;2.20;;;;;;;-0.50;100.00;99932.61;4976924;57;1136313;-82
2024/01/05 03:06:04;;;;;;;3.83;2.17;;;;;;;-0.53;100.00;99936.62;4981027;57;1136591;-80
2024/01/05 03:11:10;;;;;;;4.03;2.13;;;;;;;-0.49;100.00;99940.79;4921528;58;1136848;-82
2024/01/05 03:16:16;;;;;;;3.30;2.33;;;;;;;-0.49;100.00;99943.39;4940434;58;1136869;-81
2024/01/05 03:21:22;;;;;;;2.07;1.70;;;;;;;-0.50;100.00;99956.44;4979374;58;1136760;-81
2024/01/05 03:26:28;;;;;;;4.17;1.80;;;;;;;-0.49;100.00;99950.34;4913498;58;1136984;-81
2024/01/05 03:31:34;;;;;;;4.03;1.87;;;;;;;-0.48;100.00;99954.17;4999608;57;1137074;-82
2024/01/05 03:36:40;;;;;;;2.20;1.70;;;;;;;-0.49;100.00;99956.83;4952349;57;1136656;-82
2024/01/05 03:41:45;;;;;;;2.70;1.27;;;;;;;-0.46;100.00;99947.61;4953340;56;1136838;-82
2024/01/05 03:46:52;;;;;;;2.52;1.80;;;;;;;-0.44;100.00;99938.83;4998435;57;1136645;-81
2024/01/05 03:51:57;;;;;;;2.57;1.83;;;;;;;-0.42;100.00;99945.25;4974592;57;1136672;-81
2024/01/05 03:57:03;;;;;;;2.77;1.53;;;;;;;-0.40;100.00;99939.09;4976111;57;1136541;-81
2024/01/05 04:02:09;;;;;;;3.40;1.80;;;;;;;-0.37;100.00;99934.23;4999967;57;1136889;-82
2024/01/05 04:07:14;;;;;;;4.90;1.80;;;;;;;-0.37;100.00;99934.23;4976668;58;1137037;-82
2024/01/05 04:12:20;;;;;;;2.73;1.57;;;;;;;-0.36;100.00;99936.77;4955545;58;1136850;-81
2024/01/05 04:17:26;;;;;;;3.00;1.97;;;;;;;-0.34;100.00;99931.96;4943034;57;1137014;-83
2024/01/05 04:22:32;;;;;;;3.17;1.73;;;;;;;-0.32;100.00;99934.05;4932378;58;1136620;-81
2024/01/05 04:27:38;;;;;;;3.77;2.23;;;;;;;-0.24;100.00;99925.45;4929566;56;1136669;-83
2024/01/05 04:32:45;;;;;;;7.97;3.08;;;;;;;-0.12;100.00;99929.66;4949293;57;1136795;-82
2024/01/05 04:37:51;;;;;;;19.97;4.97;;;;;;;-0.05;100.00;99940.66;4952292;56;1136724;-82
2024/01/05 04:42:56;;;;;;;18.73;6.63;;;;;;;-0.03;100.00;99939.68;4955020;55;1138830;-82
2024/01/05 04:48:03;;;;;;;16.67;5.73;;;;;;;0.05;100.00;99932.83;4976110;57;1138448;-82
2024/01/05 04:53:09;;;;;;;15.00;5.47;;;;;;;0.07;100.00;99940.56;4995926;57;1136602;-81
2024/01/05 04:58:14;;;;;;;11.23;4.50;;;;;;;0.09;100.00;99949.14;4958121;56;1137063;-82
2024/01/05 05:03:20;;;;;;;9.58;3.30;;;;;;;-0.06;100.00;99946.76;4915247;56;1136344;-82
2024/01/05 05:08:26;;;;;;;18.93;6.20;;;;;;;-0.21;100.00;99951.31;4926747;57;1136754;-81
2024/01/05 05:13:31;;;;;;;7.83;3.00;;;;;;;-0.24;100.00;99954.03;4981095;55;1139304;-81
2024/01/05 05:18:37;;;;;;;11.70;3.63;;;;;;;-0.26;100.00;99960.59;4969712;55;1136912;-82
2024/01/05 05:23:43;;;;;;;10.13;3.50;;;;;;;-0.19;100.00;99958.59;4928551;57;1139844;-83
2024/01/05 05:28:49;;;;;;;5.80;3.80;;;;;;;-0.07;100.00;99956.31;4926789;58;1138653;-82
2024/01/05 05:33:55;;;;;;;6.77;3.70;;;;;;;0.03;100.00;99958.50;4909544;57;1136773;-81
2024/01/05 05:39:01;;;;;;;9.67;3.50;;;;;;;0.00;100.00;99971.20;5011918;56;1134405;-82
2024/01/05 05:44:06;;;;;;;4.47;2.40;;;;;;;-0.08;100.00;99975.41;4969780;57;1134333;-79
2024/01/05 05:49:12;;;;;;;9.93;3.83;;;;;;;-0.12;100.00;99975.14;4988049;57;1136916;-81
2024/01/05 05:54:17;;;;;;;4.73;2.83;;;;;;;-0.09;100.00;99978.92;4939720;56;1136799;-79
2024/01/05 05:59:24;;;;;;;5.47;2.45;;;;;;;-0.14;100.00;99992.55;4988842;56;1136441;-79
2024/01/05 06:04:30;;;;;;;5.70;3.20;;;;;;;-0.21;100.00;100001.53;4977986;56;1136907;-79
2024/01/05 06:09:36;;;;;;;9.97;3.43;;;;;;;-0.17;100.00;100007.00;4972347;57;1138805;-81
2024/01/05 06:14:41;;;;;;;9.90;4.27;;;;;;;-0.16;100.00;100011.30;4904206;58;1147178;-78
2024/01/05 06:19:47;;;;;;;6.40;2.95;;;;;;;-0.13;100.00;100014.19;4929154;57;1139282;-77
2024/01/05 06:24:52;;;;;;;13.53;5.90;;;;;;;-0.05;100.00;100012.12;4947668;56;1138644;-78
2024/01/05 06:29:58;;;;;;;6.47;2.87;;;;;;;0.03;100.00;100013.94;4880020;57;1140944;-78
2024/01/05 06:35:05;;;;;;;3.27;2.30;;;;;;;-0.07;100.00;100023.89;4910338;57;1136767;-79
2024/01/05 06:40:11;;;;;;;19.63;6.73;;;;;;;-0.11;100.00;100021.47;4942515;57;1138968;-78
2024/01/05 06:45:17;;;;;;;15.47;4.43;;;;;;;-0.09;100.00;100015.76;5050052;55;1141134;-77
2024/01/05 06:50:24;;;;;;;11.60;5.12;;;;;;;-0.17;100.00;100020.45;4987596;57;1141057;-77
2024/01/05 06:55:29;;;;;;;18.10;6.57;;;;;;;-0.21;100.00;100033.17;4972855;56;1140742;-77
2024/01/05 07:00:37;;;;;;;12.93;5.60;;;;;;;-0.17;100.00;100017.39;4858986;57;1246504;-77
2024/01/05 07:05:42;;;;;;;10.40;5.75;;;;;;;-0.10;100.00;100014.06;4964801;55;1140895;-79
2024/01/05 07:10:48;;;;;;;14.23;6.78;;;;;;;-0.05;100.00;100018.62;4853432;57;1140797;-85
2024/01/05 07:15:53;;;;;;;16.07;9.23;;;;;;;-0.03;100.00;100015.52;4850935;57;1140838;-80
2024/01/05 07:21:02;;;;;;;21.53;8.47;;;;;;;0.01;100.00;100007.95;5007062;56;1140618;-80
2024/01/05 07:26:08;;;;;;;17.23;7.00;;;;;;;0.07;100.00;100004.26;4891571;57;1138679;-82
2024/01/05 07:31:14;;;;;;;10.63;4.97;;;;;;;-0.02;100.00;100003.75;4963407;57;1138572;-81
2024/01/05 07:36:20;;;;;;;7.23;4.00;;;;;;;-0.08;100.00;100009.66;4968806;57;1140721;-79
2024/01/05 07:41:27;;;;;;;12.40;5.23;;;;;;;-0.09;100.00;100001.02;4942842;57;1139129;-80
2024/01/05 07:46:33;;;;;;;8.43;3.20;;;;;;;0.00;100.00;99998.50;4922840;57;1141573;-78
2024/01/05 07:51:39;;;;;;;9.03;5.17;;;;;;;0.08;100.00;99991.65;4900703;57;1134754;-81
2024/01/05 07:56:44;;;;;;;34.83;16.13;;;;;;;0.11;100.00;99995.42;4984693;56;1134925;-80
2024/01/05 08:01:53;;;;;;;17.40;8.28;;;;;;;0.10;100.00;100000.23;5019572;57;1139045;-81
2024/01/05 08:06:59;;;;;;;14.43;7.07;;;;;;;0.09;100.00;100002.44;4926741;56;1138906;-79
2024/01/05 08:12:05;;;;;;;13.67;5.17;;;;;;;0.11;100.00;100013.17;4939403;57;1139179;-81
2024/01/05 08:17:10;;;;;;;6.60;2.98;;;;;;;0.11;100.00;100027.47;4931384;57;1138653;-80
2024/01/05 08:22:16;;;;;;;10.33;4.53;;;;;;;0.08;100.00;100020.25;4944114;57;1136969;-82
2024/01/05 08:27:21;;;;;;;8.43;3.00;;;;;;;0.14;100.00;100018.25;4875978;57;1138659;-77
2024/01/05 08:32:27;;;;;;;6.67;1.90;;;;;;;0.17;100.00;100023.74;4915487;57;1136945;-78
2024/01/05 08:37:32;;;;;;;3.30;1.60;;;;;;;0.20;100.00;100021.86;4943818;57;1136537;-83
2024/01/05 08:42:40;;;;;;;4.93;1.20;;;;;;;0.18;100.00;100029.33;4949091;56;1136692;-80
2024/01/05 08:47:46;;;;;;;9.73;5.40;;;;;;;0.23;100.00;100036.49;4950804;56;1136610;-81
2024/01/05 08:52:52;;;;;;;11.42;5.94;;;;;;;0.25;100.00;100039.88;4970529;56;1136649;-82
2024/01/05 08:57:59;;;;;;;19.20;10.13;;;;;;;0.25;100.00;100034.22;4962410;57;1138651;-81
2024/01/05 09:03:04;;;;;;;31.97;11.77;;;;;;;0.28;100.00;100048.41;4950298;56;1140740;-80
2024/01/05 09:08:10;;;;;;;5.17;3.67;;;;;;;0.32;100.00;100050.39;4921721;57;1140809;-81
2024/01/05 09:13:16;;;;;;;11.90;7.27;;;;;;;0.34;100.00;100066.78;4925613;57;1136843;-81
2024/01/05 09:18:21;;;;;;;20.73;5.97;;;;;;;0.35;100.00;100068.02;4918639;57;1138592;-77
2024/01/05 09:23:27;;;;;;;22.70;7.50;;;;;;;0.40;100.00;100077.39;4952994;57;1139255;-78
2024/01/05 09:28:32;;;;;;;8.73;2.80;;;;;;;0.40;100.00;100083.44;5007248;56;1138774;-81
2024/01/05 09:33:38;;;;;;;1.60;1.50;;;;;;;0.35;100.00;100089.28;4905678;57;1136758;-79
2024/01/05 09:38:44;;;;;;;4.28;1.98;;;;;;;0.31;100.00;100103.31;4898357;57;1136606;-77
2024/01/05 09:43:50;;;;;;;25.65;8.80;;;;;;;0.30;100.00;100097.30;4954798;57;1136634;-79
2024/01/05 09:49:01;;;;;;;7.95;2.87;;;;;;;0.32;100.00;100112.81;4924770;56;1138933;-82
2024/01/05 09:54:07;;;;;;;5.07;2.37;;;;;;;0.33;100.00;100101.05;4905477;57;1136899;-81
2024/01/05 09:59:17;;;;;;;20.27;5.17;;;;;;;0.36;100.00;100097.47;4932563;57;1136719;-79
2024/01/05 10:04:21;;;;;;;5.87;3.00;;;;;;;0.41;100.00;100094.23;4893190;55;1139249;-77
2024/01/05 10:09:27;;;;;;;4.97;2.43;;;;;;;0.47;100.00;100100.45;4919938;57;1136342;-77
2024/01/05 10:14:32;;;;;;;3.85;2.35;;;;;;;0.45;100.00;100097.09;4937133;56;1136963;-77
2024/01/05 10:19:41;;;;;;;35.33;17.73;;;;;;;0.47;100.00;100099.61;4979261;57;1136330;-80
2024/01/05 10:24:45;;;;;;;9.33;3.37;;;;;;;0.42;100.00;100098.98;4918060;57;1140849;-81
2024/01/05 10:29:56;;;;;;;25.97;14.00;;;;;;;0.39;100.00;100095.20;4966156;57;1136795;-80
2024/01/05 10:35:03;;;;;;;12.40;6.03;;;;;;;0.37;100.00;100092.66;4952368;56;1140963;-80
2024/01/05 10:40:09;;;;;;;5.20;3.60;;;;;;;0.42;100.00;100089.88;4938393;55;1138941;-78
2024/01/05 10:45:15;;;;;;;3.53;2.40;;;;;;;0.42;100.00;100085.97;4945233;57;1136703;-80
2024/01/05 10:50:21;;;;;;;34.87;11.20;;;;;;;0.45;100.00;100091.90;4979153;57;1136656;-82
2024/01/05 10:55:27;;;;;;;29.60;10.73;;;;;;;0.47;100.00;100082.70;4873653;58;1140582;-79
2024/01/05 11:00:33;;;;;;;12.67;5.97;;;;;;;0.50;100.00;100087.32;4944255;56;1140972;-80
2024/01/05 11:05:42;;;;;;;13.70;6.83;;;;;;;0.50;100.00;100082.12;4980564;57;1139885;-78
2024/01/05 11:10:58;;;;;;;8.48;4.22;;;;;;;0.57;100.00;100084.01;4943794;57;1138945;-77
2024/01/05 11:16:32;;;;;;;5.63;3.77;;;;;;;0.52;100.00;100075.55;4977948;56;1136706;-80
2024/01/05 11:21:47;;;;;;;17.77;7.05;;;;;;;0.50;100.00;100070.86;4950738;56;1137512;-83
2024/01/05 11:26:56;;;;;;;7.70;4.97;;;;;;;0.47;100.00;100065.33;4996414;57;1139055;-77
2024/01/05 11:32:02;;;;;;;8.10;3.77;;;;;;;0.47;100.00;100065.78;4960451;56;1136872;-82
2024/01/05 11:37:08;;;;;;;10.83;4.70;;;;;;;0.42;100.00;100061.27;4998192;56;1136662;-77
2024/01/05 11:42:29;;;;;;;8.35;5.25;;;;;;;0.38;100.00;100055.80;5029618;55;1139092;-79
2024/01/05 11:47:48;;;;;;;8.20;4.77;;;;;;;0.34;100.00;100042.07;4973613;56;1136672;-82
2024/01/05 11:53:16;;;;;;;61.77;44.37;;;;;;;0.29;100.00;100037.09;4942409;57;1136774;-83
2024/01/05 11:58:38;;;;;;;31.10;14.47;;;;;;;0.30;100.00;100018.42;5004256;56;1140913;-78
2024/01/05 12:03:45;;;;;;;13.40;5.47;;;;;;;0.33;100.00;100015.22;4914194;56;1141027;-78
2024/01/05 12:08:51;;;;;;;9.93;4.97;;;;;;;0.27;100.00;100018.55;4974829;56;1138831;-79
2024/01/05 12:13:57;;;;;;;15.55;5.95;;;;;;;0.25;100.00;100016.02;4968232;57;1136916;-72
2024/01/05 12:19:02;;;;;;;9.13;3.10;;;;;;;0.25;100.00;100021.22;4934606;57;1138851;-74
2024/01/05 12:24:11;;;;;;;34.90;15.80;;;;;;;0.22;100.00;100013.55;4969840;56;1136883;-73
2024/01/05 12:29:17;;;;;;;21.50;10.33;;;;;;;0.21;100.00;100000.15;4991920;55;1141010;-72
2024/01/05 12:34:22;;;;;;;19.23;8.43;;;;;;;0.17;100.00;100013.34;4894107;57;1140812;-74
2024/01/05 12:39:28;;;;;;;14.33;7.00;;;;;;;0.11;100.00;100001.92;4879954;56;1138805;-74
2024/01/05 12:44:33;;;;;;;10.68;5.10;;;;;;;0.11;100.00;100000.17;4954910;55;1139029;-75
2024/01/05 12:49:39;;;;;;;8.30;4.10;;;;;;;0.05;100.00;100003.47;4956013;57;1138611;-78
2024/01/05 12:54:45;;;;;;;7.60;4.83;;;;;;;0.07;100.00;100002.95;4887210;56;1136412;-78
2024/01/05 12:59:51;;;;;;;13.30;5.85;;;;;;;0.07;100.00;99998.61;4930646;56;1136705;-79
2024/01/05 13:04:56;;;;;;;11.03;4.53;;;;;;;0.05;100.00;99991.77;4982712;57;1136888;-77
2024/01/05 13:10:02;;;;;;;13.80;5.73;;;;;;;0.02;100.00;99981.50;4931788;57;1136551;-78
2024/01/05 13:15:08;;;;;;;14.77;6.37;;;;;;;-0.02;100.00;99971.72;4981428;55;1136766;-79
2024/01/05 13:20:24;;;;;;;26.63;10.80;;;;;;;-0.06;100.00;99972.75;5003160;56;1138652;-79
2024/01/05 13:25:29;;;;;;;27.50;8.70;;;;;;;-0.11;100.00;99967.73;4987749;56;1140846;-80
2024/01/05 13:30:35;;;;;;;53.77;25.60;;;;;;;-0.10;100.00;99959.03;4903883;57;1138748;-80
2024/01/05 13:35:41;;;;;;;22.47;11.83;;;;;;;-0.11;100.00;99961.23;4955198;56;1140717;-80
2024/01/05 13:40:46;;;;;;;31.48;17.23;;;;;;;-0.13;100.00;99971.30;4989921;56;1140909;-80
2024/01/05 13:45:54;;;;;;;19.83;10.47;;;;;;;-0.17;100.00;99978.41;4978169;56;1140937;-79
2024/01/05 13:50:59;;;;;;;10.40;6.10;;;;;;;-0.20;100.00;99968.14;4938609;57;1140868;-78
2024/01/05 13:56:05;;;;;;;12.37;8.17;;;;;;;-0.24;100.00;99948.84;4923883;57;1138959;-80
2024/01/05 14:01:11;;;;;;;20.13;11.50;;;;;;;-0.37;100.00;99962.80;4947970;56;1138645;-78
2024/01/05 14:06:16;;;;;;;17.80;8.33;;;;;;;-0.37;100.00;99962.80;4955001;56;1141534;-78
2024/01/05 14:11:22;;;;;;;27.13;12.73;;;;;;;-0.33;100.00;99960.48;4943550;55;1138749;-78
2024/01/05 14:16:28;;;;;;;23.57;13.20;;;;;;;-0.35;100.00;99966.19;4980822;55;1140850;-78
2024/01/05 14:21:34;;;;;;;23.32;8.58;;;;;;;-0.38;100.00;99961.96;4989643;54;1142874;-78
2024/01/05 14:26:40;;;;;;;19.23;9.13;;;;;;;-0.37;100.00;99962.35;4990139;57;1138724;-79
2024/01/05 14:31:47;;;;;;;20.70;10.20;;;;;;;-0.38;100.00;99971.50;4969567;57;1138831;-77
2024/01/05 14:36:53;;;;;;;32.25;14.03;;;;;;;-0.36;100.00;99981.38;4962877;54;1141185;-77
2024/01/05 14:41:59;;;;;;;41.05;15.38;;;;;;;-0.40;100.00;99978.52;4963700;57;1141590;-78
2024/01/05 14:47:04;;;;;;;48.13;19.50;;;;;;;-0.42;100.00;99986.37;4992838;56;1141029;-77
2024/01/05 14:52:10;;;;;;;130.67;26.17;;;;;;;-0.40;100.00;99982.41;4923136;56;1141218;-78
2024/01/05 14:57:16;;;;;;;52.43;13.83;;;;;;;-0.41;100.00;99971.63;5003798;55;1142949;-79
2024/01/05 15:02:21;;;;;;;28.10;9.20;;;;;;;-0.42;100.00;99966.04;4964167;54;1141828;-78
2024/01/05 15:07:27;;;;;;;42.50;13.77;;;;;;;-0.55;100.00;99959.21;4971184;56;1138774;-78
2024/01/05 15:12:33;;;;;;;31.12;10.00;;;;;;;-0.53;100.00;99979.93;4947419;57;1141183;-78
2024/01/05 15:17:39;;;;;;;63.57;22.80;;;;;;;-0.54;100.00;99979.53;4972186;57;1141057;-78
2024/01/05 15:22:46;;;;;;;78.60;27.57;;;;;;;-0.56;100.00;99986.55;4969099;58;1140776;-78
2024/01/05 15:27:51;;;;;;;140.60;38.57;;;;;;;-0.62;100.00;99992.84;4951441;57;1140835;-78
2024/01/05 15:32:57;;;;;;;19.00;8.70;;;;;;;-0.67;100.00;99994.77;5013914;56;1143143;-78
2024/01/05 15:38:07;;;;;;;29.67;12.53;;;;;;;-0.73;100.00;99999.75;5020945;55;1138939;-78
2024/01/05 15:43:12;;;;;;;79.50;24.80;;;;;;;-0.75;100.00;100002.85;5025379;56;1141170;-78
2024/01/05 15:48:19;;;;;;;39.70;14.10;;;;;;;-0.85;100.00;99999.39;4900572;58;1142883;-78
2024/01/05 15:53:25;;;;;;;50.90;18.80;;;;;;;-0.85;100.00;100013.22;4804612;58;1141024;-78
2024/01/05 15:58:31;;;;;;;42.80;15.50;;;;;;;-0.86;100.00;100009.38;4881638;57;1142939;-79
2024/01/05 16:03:36;;;;;;;65.50;21.77;;;;;;;-0.91;100.00;99998.31;4964016;56;1143133;-78
2024/01/05 16:08:48;;;;;;;39.17;19.37;;;;;;;-0.91;100.00;99990.08;5008798;56;1140910;-78
2024/01/05 16:13:53;;;;;;;290.57;122.07;;;;;;;-0.93;100.00;99987.18;4943295;56;1140889;-80
2024/01/05 16:19:00;;;;;;;121.73;69.10;;;;;;;-0.94;100.00;99988.08;4926134;57;1144864;-80
2024/01/05 16:24:08;;;;;;;25.33;10.30;;;;;;;-0.94;100.00;99998.02;4869407;57;1142766;-81
2024/01/05 16:29:14;;;;;;;18.73;8.93;;;;;;;-0.96;100.00;99993.33;4934435;57;1140718;-81
2024/01/05 16:34:19;;;;;;;17.82;8.93;;;;;;;-0.98;100.00;99993.84;4982387;57;1138843;-81
2024/01/05 16:39:25;;;;;;;28.73;11.23;;;;;;;-0.99;100.00;99990.00;4859552;58;1255193;-80
2024/01/05 16:44:30;;;;;;;24.37;11.60;;;;;;;-0.99;100.00;99997.78;4947456;57;1140962;-81
2024/01/05 16:49:37;;;;;;;376.13;165.23;;;;;;;-1.01;100.00;99988.76;4909001;57;1140861;-82
2024/01/05 16:54:42;;;;;;;26.30;14.10;;;;;;;-1.03;100.00;99991.02;4960535;55;1145249;-80
2024/01/05 16:59:48;;;;;;;22.73;9.43;;;;;;;-1.03;100.00;99984.53;4916795;56;1140935;-79
2024/01/05 17:04:54;;;;;;;25.03;10.80;;;;;;;-1.12;100.00;99981.40;4909989;56;1138918;-79
2024/01/05 17:10:00;;;;;;;19.70;9.78;;;;;;;-1.13;100.00;99988.79;4989516;56;1140941;-79
2024/01/05 17:15:06;;;;;;;33.03;14.50;;;;;;;-1.19;100.00;99995.50;4951304;55;1149144;-80
2024/01/05 17:20:12;;;;;;;58.58;32.48;;;;;;;-1.19;100.00;99983.82;4956965;57;1140738;-78
2024/01/05 17:25:18;;;;;;;55.57;27.80;;;;;;;-1.17;100.00;99985.06;5003502;56;1140834;-78
2024/01/05 17:30:24;;;;;;;36.07;15.37;;;;;;;-1.16;100.00;99991.95;4957850;57;1141105;-77
2024/01/05 17:35:29;;;;;;;40.00;15.47;;;;;;;-1.20;100.00;99987.77;4961550;57;1140971;-78
2024/01/05 17:40:35;;;;;;;25.88;13.25;;;;;;;-1.23;100.00;99989.20;4952208;57;1141023;-79
2024/01/05 17:45:40;;;;;;;26.80;11.03;;;;;;;-1.27;100.00;99998.84;4876644;57;1141298;-79
2024/01/05 17:50:46;;;;;;;37.70;19.10;;;;;;;-1.26;100.00;100010.06;4916482;57;1141130;-79
2024/01/05 17:55:51;;;;;;;28.23;12.40;;;;;;;-1.28;100.00;100012.72;4910374;55;1142823;-78
2024/01/05 18:00:57;;;;;;;28.53;13.63;;;;;;;-1.32;100.00;100013.72;4795861;58;1143136;-78
2024/01/05 18:06:02;;;;;;;36.90;18.47;;;;;;;-1.33;100.00;100008.59;5028664;57;1143492;-79
2024/01/05 18:11:09;;;;;;;38.77;18.93;;;;;;;-1.34;100.00;100003.01;4930215;57;1143232;-78
2024/01/05 18:16:26;;;;;;;20.83;10.50;;;;;;;-1.35;100.00;100002.61;4863541;58;1142789;-77
2024/01/05 18:21:32;;;;;;;36.03;15.07;;;;;;;-1.36;100.00;99995.28;4885497;57;1142852;-78
2024/01/05 18:26:39;;;;;;;44.93;18.75;;;;;;;-1.38;100.00;99987.19;4915916;57;1141077;-80
2024/01/05 18:31:45;;;;;;;34.57;16.70;;;;;;;-1.38;100.00;99995.81;4943887;57;1141222;-79
2024/01/05 18:36:50;;;;;;;47.67;20.20;;;;;;;-1.35;100.00;99996.13;4846437;57;1141160;-79
2024/01/05 18:41:56;;;;;;;40.67;23.07;;;;;;;-1.31;100.00;99996.41;4912059;55;1141249;-80
2024/01/05 18:47:02;;;;;;;30.17;11.90;;;;;;;-1.33;100.00;99987.84;4967853;57;1140845;-79
2024/01/05 18:52:08;;;;;;;56.10;21.90;;;;;;;-1.35;100.00;99974.08;4942751;55;1141082;-80
2024/01/05 18:57:17;;;;;;;41.37;17.62;;;;;;;-1.36;100.00;99963.31;4895955;56;1140924;-80
2024/01/05 19:02:21;;;;;;;38.85;18.73;;;;;;;-1.40;100.00;99956.12;4975283;56;1141078;-80
2024/01/05 19:07:27;;;;;;;44.10;20.23;;;;;;;-1.40;100.00;99950.09;4940277;56;1140668;-80
2024/01/05 19:12:32;;;;;;;46.35;17.48;;;;;;;-1.39;100.00;99949.19;4940754;56;1140812;-80
2024/01/05 19:17:39;;;;;;;60.73;20.90;;;;;;;-1.37;100.00;99939.56;4968596;57;1140583;-80
2024/01/05 19:22:44;;;;;;;62.30;20.13;;;;;;;-1.36;100.00;99955.08;4952498;57;1140667;-80
2024/01/05 19:27:50;;;;;;;47.67;18.20;;;;;;;-1.32;100.00;99961.00;4941904;57;1140537;-80
2024/01/05 19:32:56;;;;;;;50.43;20.00;;;;;;;-1.30;100.00;99953.56;4950949;57;1140784;-79
2024/01/05 19:38:02;;;;;;;41.33;15.33;;;;;;;-1.28;100.00;99944.42;4935035;55;1140550;-79
2024/01/05 19:43:07;;;;;;;77.00;25.37;;;;;;;-1.26;100.00;99938.73;4940973;56;1141250;-79
2024/01/05 19:48:14;;;;;;;60.37;20.27;;;;;;;-1.23;100.00;99945.10;4944743;56;1140722;-79
2024/01/05 19:53:21;;;;;;;91.95;28.12;;;;;;;-1.24;100.00;99948.59;4948589;56;1141078;-81
2024/01/05 19:58:26;;;;;;;106.90;31.33;;;;;;;-1.26;100.00;99946.06;4944588;57;1140896;-80
2024/01/05 20:03:34;;;;;;;62.10;18.50;;;;;;;-1.23;100.00;99945.10;4968959;56;1143025;-80
2024/01/05 20:08:39;;;;;;;132.97;36.23;;;;;;;-1.22;100.00;99963.66;5009181;56;1140513;-80
2024/01/05 20:13:45;;;;;;;84.73;26.17;;;;;;;-1.20;100.00;99979.53;4934218;56;1142762;-80
2024/01/05 20:18:51;;;;;;;49.40;18.03;;;;;;;-1.20;100.00;99975.64;4943530;55;1140820;-79
2024/01/05 20:23:58;;;;;;;64.70;18.77;;;;;;;-1.16;100.00;99978.97;4976270;57;1140882;-80
2024/01/05 20:29:04;;;;;;;39.73;14.80;;;;;;;-1.14;100.00;99953.81;4965039;57;1140586;-79
2024/01/05 20:34:11;;;;;;;72.27;23.57;;;;;;;-1.16;100.00;99969.44;4922161;57;1141014;-78
2024/01/05 20:39:16;;;;;;;36.45;12.68;;;;;;;-1.17;100.00;99972.09;4954775;57;1140498;-77
2024/01/05 20:44:24;;;;;;;35.52;12.20;;;;;;;-1.16;100.00;99977.22;4930633;57;1141003;-78
2024/01/05 20:49:29;;;;;;;35.23;12.50;;;;;;;-1.17;100.00;99972.09;4897677;58;1140517;-77
2024/01/05 20:54:35;;;;;;;32.88;13.70;;;;;;;-1.16;100.00;99980.27;4893966;58;1140723;-78
2024/01/05 20:59:42;;;;;;;34.83;13.57;;;;;;;-1.16;100.00;99978.97;4925311;56;1140638;-78
2024/01/05 21:04:48;;;;;;;23.47;10.50;;;;;;;-1.17;100.00;99983.31;4881272;57;1140713;-78
2024/01/05 21:09:53;;;;;;;22.43;10.57;;;;;;;-1.19;100.00;99984.27;4900955;57;1140982;-78
2024/01/05 21:14:59;;;;;;;40.33;13.30;;;;;;;-1.23;100.00;99971.89;4949283;57;1141062;-78
2024/01/05 21:20:06;;;;;;;34.33;12.10;;;;;;;-1.24;100.00;99963.71;4929152;56;1141217;-78
2024/01/05 21:25:11;;;;;;;26.43;11.23;;;;;;;-1.23;100.00;99961.97;4938422;57;1140817;-78
2024/01/05 21:30:18;;;;;;;29.27;12.17;;;;;;;-1.24;100.00;99964.16;4884916;57;1140975;-80
2024/01/05 21:35:23;;;;;;;32.80;13.25;;;;;;;-1.22;100.00;99977.92;4861550;57;1140884;-80
2024/01/05 21:40:30;;;;;;;35.03;15.20;;;;;;;-1.19;100.00;99980.38;4954229;58;1140641;-80
2024/01/05 21:45:35;;;;;;;38.95;15.98;;;;;;;-1.23;100.00;99967.16;4867769;57;1140810;-80
2024/01/05 21:50:42;;;;;;;34.23;13.90;;;;;;;-1.24;100.00;99962.42;4892091;56;1140730;-80
2024/01/05 21:55:48;;;;;;;27.15;12.47;;;;;;;-1.24;100.00;99965.01;4983436;56;1140969;-80
2024/01/05 22:00:54;;;;;;;31.47;13.57;;;;;;;-1.24;100.00;99966.31;4859052;58;1140855;-80
2024/01/05 22:05:59;;;;;;;29.55;14.25;;;;;;;-1.25;100.00;99960.72;4939037;57;1140626;-80
2024/01/05 22:11:05;;;;;;;21.67;11.27;;;;;;;-1.23;100.00;99967.16;4874299;57;1140769;-80
2024/01/05 22:16:19;;;;;;;23.37;11.97;;;;;;;-1.23;100.00;99973.19;4919381;56;1140879;-80
2024/01/05 22:21:25;;;;;;;30.47;12.60;;;;;;;-1.22;100.00;99976.63;4900249;58;1141229;-80
2024/01/05 22:26:34;;;;;;;30.90;13.93;;;;;;;-1.24;100.00;99977.14;4814015;59;1141190;-80
2024/01/05 22:31:42;;;;;;;31.23;16.23;;;;;;;-1.27;100.00;99981.14;4867040;59;1141404;-80
2024/01/05 22:36:47;;;;;;;29.33;14.93;;;;;;;-1.27;100.00;99976.80;4930627;57;1140561;-80
2024/01/05 22:41:55;;;;;;;25.77;12.00;;;;;;;-1.27;100.00;99971.61;4914432;57;1140905;-80
2024/01/05 22:47:04;;;;;;;25.33;12.83;;;;;;;-1.30;100.00;99966.53;4918255;57;1140990;-80
2024/01/05 22:52:08;;;;;;;25.53;13.07;;;;;;;-1.30;100.00;99960.05;4984405;57;1141181;-80